Domov               UVHVVR             MKGP            O straneh              
ZDRAVSTVENO VARSTVO RASTLIN
  MREŽA AGROMET. POSTAJ
 ► PROGNOSTIČNA OBVESTILA
AGROMETEOROLOŠKI PODATKI -
ARSO
OBVLADOVANJE TVEGANJ ZARADI
NEUGODNIH VREMENSKIH RAZMER
  ► NARAVNE NESREČE
  ► SUŠA/MOČA
  ► NAMAKANJE
  ► ŽLED (gozdarstvo)
KARTOGRAFSKI PRIKAZI
SPLETNE POVEZAVE
PROJEKTI IN PUBLIKACIJE

AGROMETEOROLOŠKA MREŽA: VREMENSKE POSTAJE IN FENOLOŠKA OPAZOVANJA

Pregled podatkov za lokacijo Selnica ob Dravi, meteorološka postaja 49160

Pregled senzorjev na lokaciji

ID Ime Zadnja
vrednost
Datum
zadnje
spremembe
Tip
senzorja
3696 Temperatura 2 m ( °C) 17,67 °C 25.6.2017 23:30 50YA
3697 Relativna vlaga 2 m (% RH) 99,98 % RH 25.6.2017 23:30 50YA
3698 Omočenost lista (U) 10 U 25.6.2017 23:30 A730WET
3699 Sončno sevanje (W/m2) 0,4 W/m2 25.6.2017 23:30 Pyranometer SP-Lite
3700 Temperatura tal ( °C) 18,97 °C 25.6.2017 23:30 99TG411E
3701 Hitrost vetra (km/h) 1,46 km/h 25.6.2017 23:30 566.2S-176 (200km/h)
3702 Smer vetra (°) 201,21 ° 25.6.2017 23:30 566.2S-130
3703 Padavine 0.2 mm (mm) 0 mm 25.6.2017 23:30 Rain-O-Matic

Pregled podatkov zadnjih 24 ur

Zap.
št.
Datum in čas Selnica ob Dravi
Hitrost
vetra
Omočenost
lista
Padavine
0.2
mm
Relativna
vlaga
2
m
Smer
vetra
Sončno
sevanje
Temperatura
2
m
Temperatura
tal
0 25.6.2017 22:30 1,46 10 0 99,98 201,21 0,4 17,67 18,97
1 25.6.2017 22:00 2,18 10 0,4 99,98 255,38 0,37 17,76 18,99
2 25.6.2017 21:30 2,29 10 0 99,98 253,81 0,37 17,83 19,01
3 25.6.2017 21:00 3,55 10 0 99,98 240,59 0,4 17,89 19,04
4 25.6.2017 20:30 2,59 10 1 99,98 311,06 0,55 17,92 19,04
5 25.6.2017 20:00 2,58 8 2,8 99,98 140,91 0,85 18,08 19,04
6 25.6.2017 19:30 2,76 8 6,8 99,99 111,84 0,7 18,47 19,05
7 25.6.2017 19:00 3,4 10 4,4 99,99 172,91 0,79 18,83 19
8 25.6.2017 18:30 2,13 10 1 98,25 298,44 2,59 19,21 19,02
9 25.6.2017 18:00 2,92 10 1 94,64 252,28 23,04 19,75 19,01
10 25.6.2017 17:30 2,47 10 0 89,45 270,49 69,12 20,36 19
11 25.6.2017 17:00 7,06 1 0 82,4 286,23 86,98 21,45 19
12 25.6.2017 16:30 5,18 0 0 80,42 267,05 184,54 22,07 19,03
13 25.6.2017 16:00 4,88 0 0 80,97 197,36 336,83 22,3 19,04
14 25.6.2017 15:30 5,8 0 0 89,35 259,9 333,78 21,14 19,03
15 25.6.2017 15:00 5,11 6 0 99,74 246,59 339,24 19,44 19,03
16 25.6.2017 14:30 4,58 10 0 99,98 181,55 249,76 18,36 18,99
17 25.6.2017 14:00 2,67 10 0 99,98 198,23 82,92 17,46 18,96
18 25.6.2017 13:30 4,8 10 0,2 99,98 202,1 14,01 17,17 18,96
19 25.6.2017 13:00 3 10 1,6 99,96 188,11 4,76 17,24 18,96
20 25.6.2017 12:30 11,27 8 17 89,88 172,42 5,25 19,41 18,97
21 25.6.2017 12:00 1,78 4 0 85,5 258,97 83,47 22,65 19,05
22 25.6.2017 11:30 0,97 10 0 82,81 340,35 138,37 22,99 19,02
23 25.6.2017 11:00 0,3 4 0 76,56 74,14 78,77 23,02 18,99
24 25.6.2017 10:30 4,17 0 0 73,48 306,7 248,75 23,47 19
25 25.6.2017 10:00 3,8 0 0 82,07 305,67 153,38 22,43 18,95
26 25.6.2017 09:30 2,84 0 0 78,13 183,9 254,61 23,3 19
27 25.6.2017 09:00 2,79 0 0 77,59 218 357,4 22,81 18,96
28 25.6.2017 08:30 3,65 0 0 82,67 327,01 394,38 21,85 18,92
29 25.6.2017 08:00 5,43 1 0 88,17 284,78 273,53 20,4 18,87
30 25.6.2017 07:30 2,84 10 0 90,26 281,58 234,47 19,9 18,87
31 25.6.2017 07:00 1,42 10 0 92,49 103,42 159,18 19,25 18,87
32 25.6.2017 06:30 1,25 10 0 96,14 115,71 115,97 18,47 18,86
33 25.6.2017 06:00 3,68 10 0 97,47 179,02 63,14 17,97 18,86
34 25.6.2017 05:30 4,44 10 0 98,8 200,5 41,57 17,76 18,91
35 25.6.2017 05:00 6,13 10 0 99,98 241,57 18,22 17,7 18,94
36 25.6.2017 04:30 5,18 10 0 99,98 199,02 3,45 17,55 19,03
37 25.6.2017 04:00 4,67 10 0 99,99 269,14 0,58 17,59 19,13
38 25.6.2017 03:30 4,55 10 0 99,98 245,29 0,49 17,62 19,24
39 25.6.2017 03:00 4,42 10 0 99,99 192,69 0,46 17,55 19,35
40 25.6.2017 02:30 4,46 10 0 99,98 190,06 0,43 17,4 19,45
41 25.6.2017 02:00 12,53 10 11,8 91,6 282,17 0,49 18,18 19,6
42 25.6.2017 01:30 12,99 0 0 77,2 260,73 0,46 22,81 19,73
43 25.6.2017 01:00 2,19 0 0 92,99 294,81 0,52 20,74 19,75
44 25.6.2017 00:30 0,1 0 0 90,97 260,55 0,46 21,15 19,78
© 2011 Ministrstvo za kmetijstvo, gozdarstvo in prehrano. Vse pravice pridržane.